sensor_id;sensor_type;location;lat;lon;timestamp;pressure;altitude;pressure_sealevel;temperature;humidity
26859;BME280;14429;48.346;16.338;2023-02-19T00:01:43;99885.03;;;14.04;54.73
26859;BME280;14429;48.346;16.338;2023-02-19T00:04:12;99882.47;;;14.02;57.28
26859;BME280;14429;48.346;16.338;2023-02-19T00:06:37;99878.19;;;14.11;54.57
26859;BME280;14429;48.346;16.338;2023-02-19T00:09:03;99873.81;;;14.21;53.64
26859;BME280;14429;48.346;16.338;2023-02-19T00:11:31;99875.16;;;14.15;54.14
26859;BME280;14429;48.346;16.338;2023-02-19T00:13:57;99881.47;;;14.03;55.38
26859;BME280;14429;48.346;16.338;2023-02-19T00:16:25;99882.59;;;14.23;51.69
26859;BME280;14429;48.346;16.338;2023-02-19T00:18:52;99888.22;;;14.20;55.50
26859;BME280;14429;48.346;16.338;2023-02-19T00:21:20;99887.72;;;14.04;53.48
26859;BME280;14429;48.346;16.338;2023-02-19T00:23:48;99891.38;;;14.03;55.15
26859;BME280;14429;48.346;16.338;2023-02-19T00:26:13;99898.94;;;14.09;53.21
26859;BME280;14429;48.346;16.338;2023-02-19T00:28:38;99907.69;;;14.11;52.98
26859;BME280;14429;48.346;16.338;2023-02-19T00:31:05;99899.91;;;14.08;53.45
26859;BME280;14429;48.346;16.338;2023-02-19T00:33:31;99898.41;;;14.26;51.68
26859;BME280;14429;48.346;16.338;2023-02-19T00:35:58;99908.66;;;14.31;50.91
26859;BME280;14429;48.346;16.338;2023-02-19T00:38:25;99906.97;;;14.09;53.80
26859;BME280;14429;48.346;16.338;2023-02-19T00:40:51;99917.94;;;14.28;50.98
26859;BME280;14429;48.346;16.338;2023-02-19T00:43:16;99917.47;;;14.01;56.46
26859;BME280;14429;48.346;16.338;2023-02-19T00:45:41;99919.75;;;13.95;54.51
26859;BME280;14429;48.346;16.338;2023-02-19T00:48:07;99911.34;;;13.99;52.46
26859;BME280;14429;48.346;16.338;2023-02-19T00:50:32;99919.41;;;13.99;53.25
26859;BME280;14429;48.346;16.338;2023-02-19T00:52:58;99927.97;;;13.81;58.26
26859;BME280;14429;48.346;16.338;2023-02-19T00:55:25;99926.66;;;13.86;56.51
26859;BME280;14429;48.346;16.338;2023-02-19T00:57:50;99912.75;;;13.92;53.60
26859;BME280;14429;48.346;16.338;2023-02-19T01:00:16;99936.94;;;14.03;52.54
26859;BME280;14429;48.346;16.338;2023-02-19T01:02:41;99919.84;;;13.82;57.88
26859;BME280;14429;48.346;16.338;2023-02-19T01:05:07;99918.38;;;13.78;57.25
26859;BME280;14429;48.346;16.338;2023-02-19T01:07:34;99913.38;;;13.85;53.85
26859;BME280;14429;48.346;16.338;2023-02-19T01:10:00;99905.50;;;14.05;51.51
26859;BME280;14429;48.346;16.338;2023-02-19T01:12:26;99906.47;;;13.93;55.17
26859;BME280;14429;48.346;16.338;2023-02-19T01:14:52;99910.63;;;14.08;51.48
26859;BME280;14429;48.346;16.338;2023-02-19T01:17:17;99896.25;;;13.98;52.98
26859;BME280;14429;48.346;16.338;2023-02-19T01:19:43;99912.06;;;13.90;55.21
26859;BME280;14429;48.346;16.338;2023-02-19T01:22:08;99903.03;;;13.91;53.74
26859;BME280;14429;48.346;16.338;2023-02-19T01:24:34;99895.63;;;13.95;52.88
26859;BME280;14429;48.346;16.338;2023-02-19T01:26:59;99906.13;;;14.08;52.14
26859;BME280;14429;48.346;16.338;2023-02-19T01:29:26;99897.22;;;14.19;51.08
26859;BME280;14429;48.346;16.338;2023-02-19T01:31:51;99888.81;;;14.12;51.76
26859;BME280;14429;48.346;16.338;2023-02-19T01:34:17;99893.09;;;14.04;55.89
26859;BME280;14429;48.346;16.338;2023-02-19T01:36:42;99890.66;;;14.12;51.70
26859;BME280;14429;48.346;16.338;2023-02-19T01:39:09;99887.22;;;14.21;50.62
26859;BME280;14429;48.346;16.338;2023-02-19T01:41:36;99888.06;;;14.10;51.36
26859;BME280;14429;48.346;16.338;2023-02-19T01:44:04;99874.03;;;14.18;51.42
26859;BME280;14429;48.346;16.338;2023-02-19T01:46:32;99868.69;;;14.18;51.77
26859;BME280;14429;48.346;16.338;2023-02-19T01:49:00;99876.63;;;14.19;51.59
26859;BME280;14429;48.346;16.338;2023-02-19T01:51:28;99876.25;;;14.13;51.10
26859;BME280;14429;48.346;16.338;2023-02-19T01:53:56;99881.25;;;14.06;51.51
26859;BME280;14429;48.346;16.338;2023-02-19T01:56:23;99874.06;;;14.07;51.05
26859;BME280;14429;48.346;16.338;2023-02-19T01:58:51;99869.44;;;14.09;50.66
26859;BME280;14429;48.346;16.338;2023-02-19T02:01:17;99875.28;;;14.03;52.27
26859;BME280;14429;48.346;16.338;2023-02-19T02:03:46;99860.63;;;13.85;53.03
26859;BME280;14429;48.346;16.338;2023-02-19T02:06:16;99857.69;;;13.77;55.24
26859;BME280;14429;48.346;16.338;2023-02-19T02:08:43;99850.88;;;13.84;52.46
26859;BME280;14429;48.346;16.338;2023-02-19T02:11:08;99853.22;;;13.78;55.90
26859;BME280;14429;48.346;16.338;2023-02-19T02:13:34;99846.88;;;13.90;52.63
26859;BME280;14429;48.346;16.338;2023-02-19T02:16:13;99843.44;;;13.88;53.94
26859;BME280;14429;48.346;16.338;2023-02-19T02:18:54;99835.44;;;13.99;53.98
26859;BME280;14429;48.346;16.338;2023-02-19T02:21:34;99842.38;;;14.12;51.18
26859;BME280;14429;48.346;16.338;2023-02-19T02:32:57;99824.31;;;14.14;50.63
26859;BME280;14429;48.346;16.338;2023-02-19T02:35:26;99829.22;;;13.98;52.46
26859;BME280;14429;48.346;16.338;2023-02-19T02:37:56;99815.56;;;14.01;53.07
26859;BME280;14429;48.346;16.338;2023-02-19T02:40:24;99814.09;;;14.08;51.66
26859;BME280;14429;48.346;16.338;2023-02-19T02:42:50;99813.13;;;14.09;51.27
26859;BME280;14429;48.346;16.338;2023-02-19T02:45:29;99823.34;;;14.15;50.76
26859;BME280;14429;48.346;16.338;2023-02-19T02:47:56;99809.69;;;14.18;50.37
26859;BME280;14429;48.346;16.338;2023-02-19T02:50:24;99812.88;;;14.23;50.02
26859;BME280;14429;48.346;16.338;2023-02-19T02:52:54;99799.91;;;14.28;49.66
26859;BME280;14429;48.346;16.338;2023-02-19T02:55:21;99801.84;;;14.26;49.67
26859;BME280;14429;48.346;16.338;2023-02-19T02:57:46;99800.94;;;14.16;50.05
26859;BME280;14429;48.346;16.338;2023-02-19T03:00:12;99799.72;;;14.09;50.70
26859;BME280;14429;48.346;16.338;2023-02-19T03:02:41;99790.94;;;13.96;51.72
26859;BME280;14429;48.346;16.338;2023-02-19T03:05:11;99798.28;;;13.94;52.01
26859;BME280;14429;48.346;16.338;2023-02-19T03:07:40;99798.75;;;13.99;51.87
26859;BME280;14429;48.346;16.338;2023-02-19T03:10:11;99807.00;;;14.07;51.22
26859;BME280;14429;48.346;16.338;2023-02-19T03:12:39;99790.94;;;14.07;51.49
26859;BME280;14429;48.346;16.338;2023-02-19T03:15:08;99796.53;;;14.15;50.59
26859;BME280;14429;48.346;16.338;2023-02-19T03:17:38;99792.88;;;14.16;50.38
26859;BME280;14429;48.346;16.338;2023-02-19T03:20:10;99789.69;;;14.22;50.30
26859;BME280;14429;48.346;16.338;2023-02-19T03:22:39;99791.91;;;14.17;51.02
26859;BME280;14429;48.346;16.338;2023-02-19T03:25:10;99785.31;;;14.10;50.33
26859;BME280;14429;48.346;16.338;2023-02-19T03:27:37;99780.97;;;13.98;53.80
26859;BME280;14429;48.346;16.338;2023-02-19T03:30:08;99794.59;;;13.95;51.88
26859;BME280;14429;48.346;16.338;2023-02-19T03:32:39;99792.41;;;13.89;52.48
26859;BME280;14429;48.346;16.338;2023-02-19T03:35:10;99800.94;;;13.94;52.29
26859;BME280;14429;48.346;16.338;2023-02-19T03:37:40;99792.91;;;14.05;51.23
26859;BME280;14429;48.346;16.338;2023-02-19T03:40:09;99790.69;;;14.10;50.94
26859;BME280;14429;48.346;16.338;2023-02-19T03:42:40;99789.47;;;14.14;50.50
26859;BME280;14429;48.346;16.338;2023-02-19T03:45:17;99791.66;;;14.20;50.20
26859;BME280;14429;48.346;16.338;2023-02-19T03:47:50;99788.22;;;14.18;50.48
26859;BME280;14429;48.346;16.338;2023-02-19T03:50:23;99790.94;;;14.07;50.30
26859;BME280;14429;48.346;16.338;2023-02-19T03:52:56;99800.72;;;13.97;51.15
26859;BME280;14429;48.346;16.338;2023-02-19T03:55:27;99797.78;;;13.89;51.79
26859;BME280;14429;48.346;16.338;2023-02-19T03:57:56;99792.66;;;13.86;52.42
26859;BME280;14429;48.346;16.338;2023-02-19T04:00:27;99791.28;;;13.92;52.00
26859;BME280;14429;48.346;16.338;2023-02-19T04:02:57;99792.41;;;14.00;51.63
26859;BME280;14429;48.346;16.338;2023-02-19T04:05:29;99789.47;;;14.03;51.23
26859;BME280;14429;48.346;16.338;2023-02-19T04:07:58;99798.03;;;14.08;50.80
26859;BME280;14429;48.346;16.338;2023-02-19T04:10:26;99794.72;;;14.15;50.35
26859;BME280;14429;48.346;16.338;2023-02-19T04:12:56;99783.09;;;14.15;53.97
26859;BME280;14429;48.346;16.338;2023-02-19T04:15:26;99781.66;;;14.11;50.56
26859;BME280;14429;48.346;16.338;2023-02-19T04:17:55;99793.38;;;13.99;51.27
26859;BME280;14429;48.346;16.338;2023-02-19T04:20:23;99785.59;;;13.85;52.00
26859;BME280;14429;48.346;16.338;2023-02-19T04:22:52;99782.16;;;13.83;52.35
26859;BME280;14429;48.346;16.338;2023-02-19T04:25:19;99788.13;;;13.87;52.47
26859;BME280;14429;48.346;16.338;2023-02-19T04:27:45;99785.31;;;13.88;51.87
26859;BME280;14429;48.346;16.338;2023-02-19T04:30:15;99781.81;;;13.99;51.57
26859;BME280;14429;48.346;16.338;2023-02-19T04:32:40;99778.75;;;14.03;51.06
26859;BME280;14429;48.346;16.338;2023-02-19T04:35:06;99777.66;;;14.05;50.68
26859;BME280;14429;48.346;16.338;2023-02-19T04:37:31;99789.00;;;14.09;50.39
26859;BME280;14429;48.346;16.338;2023-02-19T04:39:58;99772.91;;;14.09;50.20
26859;BME280;14429;48.346;16.338;2023-02-19T04:42:24;99781.94;;;13.97;50.41
26859;BME280;14429;48.346;16.338;2023-02-19T04:44:49;99777.66;;;13.84;51.53
26859;BME280;14429;48.346;16.338;2023-02-19T04:47:15;99777.03;;;13.80;52.11
26859;BME280;14429;48.346;16.338;2023-02-19T04:49:40;99776.09;;;13.71;53.01
26859;BME280;14429;48.346;16.338;2023-02-19T04:52:05;99770.84;;;13.80;52.82
26859;BME280;14429;48.346;16.338;2023-02-19T04:54:31;99760.72;;;13.83;52.43
26859;BME280;14429;48.346;16.338;2023-02-19T04:56:58;99763.63;;;13.91;51.85
26859;BME280;14429;48.346;16.338;2023-02-19T04:59:24;99760.50;;;13.97;51.40
26859;BME280;14429;48.346;16.338;2023-02-19T05:01:49;99766.34;;;14.02;50.95
26859;BME280;14429;48.346;16.338;2023-02-19T05:04:15;99767.66;;;14.07;50.67
26859;BME280;14429;48.346;16.338;2023-02-19T05:06:40;99763.50;;;14.03;50.86
26859;BME280;14429;48.346;16.338;2023-02-19T05:09:05;99750.72;;;13.96;51.13
26859;BME280;14429;48.346;16.338;2023-02-19T05:11:31;99760.97;;;13.80;52.33
26859;BME280;14429;48.346;16.338;2023-02-19T05:13:57;99751.38;;;13.78;52.82
26859;BME280;14429;48.346;16.338;2023-02-19T05:16:23;99750.25;;;13.59;58.09
26859;BME280;14429;48.346;16.338;2023-02-19T05:18:49;99747.34;;;13.73;53.22
26859;BME280;14429;48.346;16.338;2023-02-19T05:21:15;99754.50;;;13.83;52.72
26859;BME280;14429;48.346;16.338;2023-02-19T05:23:41;99738.78;;;13.89;52.52
26859;BME280;14429;48.346;16.338;2023-02-19T05:26:07;99731.25;;;13.94;51.75
26859;BME280;14429;48.346;16.338;2023-02-19T05:28:32;99723.44;;;14.02;51.33
26859;BME280;14429;48.346;16.338;2023-02-19T05:31:03;99722.06;;;14.07;50.84
26859;BME280;14429;48.346;16.338;2023-02-19T05:33:29;99728.31;;;13.97;51.73
26859;BME280;14429;48.346;16.338;2023-02-19T05:35:55;99726.63;;;13.85;52.78
26859;BME280;14429;48.346;16.338;2023-02-19T05:38:21;99726.88;;;13.82;52.80
26859;BME280;14429;48.346;16.338;2023-02-19T05:40:46;99721.53;;;13.72;53.15
26859;BME280;14429;48.346;16.338;2023-02-19T05:43:13;99720.53;;;13.73;53.46
26859;BME280;14429;48.346;16.338;2023-02-19T05:45:38;99716.63;;;13.76;53.14
26859;BME280;14429;48.346;16.338;2023-02-19T05:48:06;99716.84;;;13.84;52.67
26859;BME280;14429;48.346;16.338;2023-02-19T05:50:33;99705.75;;;13.89;52.20
26859;BME280;14429;48.346;16.338;2023-02-19T05:52:59;99706.63;;;13.89;54.07
26859;BME280;14429;48.346;16.338;2023-02-19T05:55:24;99706.88;;;13.97;51.41
26859;BME280;14429;48.346;16.338;2023-02-19T05:57:50;99702.13;;;14.01;51.20
26859;BME280;14429;48.346;16.338;2023-02-19T06:00:18;99684.69;;;13.95;51.43
26859;BME280;14429;48.346;16.338;2023-02-19T06:02:44;99690.28;;;13.81;57.88
26859;BME280;14429;48.346;16.338;2023-02-19T06:05:11;99702.75;;;13.72;53.30
26859;BME280;14429;48.346;16.338;2023-02-19T06:07:37;99690.34;;;13.71;53.23
26859;BME280;14429;48.346;16.338;2023-02-19T06:10:03;99693.72;;;13.73;53.58
26859;BME280;14429;48.346;16.338;2023-02-19T06:12:28;99691.53;;;13.77;52.97
26859;BME280;14429;48.346;16.338;2023-02-19T06:14:53;99689.09;;;13.85;52.47
26859;BME280;14429;48.346;16.338;2023-02-19T06:17:19;99699.53;;;13.88;52.60
26859;BME280;14429;48.346;16.338;2023-02-19T06:19:44;99702.47;;;13.96;51.91
26859;BME280;14429;48.346;16.338;2023-02-19T06:22:13;99695.88;;;14.00;51.35
26859;BME280;14429;48.346;16.338;2023-02-19T06:24:38;99701.00;;;14.03;51.57
26859;BME280;14429;48.346;16.338;2023-02-19T06:27:04;99696.88;;;13.99;51.38
26859;BME280;14429;48.346;16.338;2023-02-19T06:29:29;99701.28;;;13.89;52.30
26859;BME280;14429;48.346;16.338;2023-02-19T06:31:55;99695.41;;;13.84;56.01
26859;BME280;14429;48.346;16.338;2023-02-19T06:34:20;99700.56;;;13.76;53.45
26859;BME280;14429;48.346;16.338;2023-02-19T06:36:47;99691.53;;;13.77;53.37
26859;BME280;14429;48.346;16.338;2023-02-19T06:39:15;99694.94;;;13.79;52.62
26859;BME280;14429;48.346;16.338;2023-02-19T06:41:40;99682.25;;;13.81;52.31
26859;BME280;14429;48.346;16.338;2023-02-19T06:44:06;99694.19;;;13.88;51.89
26859;BME280;14429;48.346;16.338;2023-02-19T06:46:31;99684.44;;;13.87;52.05
26859;BME280;14429;48.346;16.338;2023-02-19T06:48:57;99684.91;;;13.92;51.45
26859;BME280;14429;48.346;16.338;2023-02-19T06:51:22;99684.19;;;13.90;51.49
26859;BME280;14429;48.346;16.338;2023-02-19T06:53:48;99691.53;;;13.77;52.56
26859;BME280;14429;48.346;16.338;2023-02-19T06:56:26;99694.97;;;13.69;53.29
26859;BME280;14429;48.346;16.338;2023-02-19T06:58:52;99688.00;;;13.66;53.56
26859;BME280;14429;48.346;16.338;2023-02-19T07:01:18;99688.41;;;13.62;54.05
26859;BME280;14429;48.346;16.338;2023-02-19T07:03:44;99691.81;;;13.74;53.21
26859;BME280;14429;48.346;16.338;2023-02-19T07:06:09;99685.06;;;13.80;52.87
26859;BME280;14429;48.346;16.338;2023-02-19T07:08:35;99684.81;;;13.83;52.68
26859;BME280;14429;48.346;16.338;2023-02-19T07:11:00;99704.19;;;13.86;52.06
26859;BME280;14429;48.346;16.338;2023-02-19T07:13:27;99701.50;;;13.86;52.07
26859;BME280;14429;48.346;16.338;2023-02-19T07:15:57;99708.97;;;13.94;51.73
26859;BME280;14429;48.346;16.338;2023-02-19T07:18:22;99703.44;;;13.84;51.85
26859;BME280;14429;48.346;16.338;2023-02-19T07:20:48;99701.78;;;13.73;52.94
26859;BME280;14429;48.346;16.338;2023-02-19T07:23:13;99709.59;;;13.54;54.13
26859;BME280;14429;48.346;16.338;2023-02-19T07:25:39;99694.72;;;13.61;54.13
26859;BME280;14429;48.346;16.338;2023-02-19T07:28:04;99695.44;;;13.63;53.87
26859;BME280;14429;48.346;16.338;2023-02-19T07:30:31;99678.19;;;13.67;53.77
26859;BME280;14429;48.346;16.338;2023-02-19T07:32:56;99687.28;;;13.75;52.93
26859;BME280;14429;48.346;16.338;2023-02-19T07:35:22;99682.78;;;13.75;52.54
26859;BME280;14429;48.346;16.338;2023-02-19T07:37:47;99692.72;;;13.84;53.08
26859;BME280;14429;48.346;16.338;2023-02-19T07:40:13;99676.41;;;13.87;52.03
26859;BME280;14429;48.346;16.338;2023-02-19T07:42:38;99678.94;;;13.89;51.88
26859;BME280;14429;48.346;16.338;2023-02-19T07:45:04;99680.31;;;13.83;54.04
26859;BME280;14429;48.346;16.338;2023-02-19T07:47:31;99679.56;;;13.81;53.61
26859;BME280;14429;48.346;16.338;2023-02-19T07:49:57;99689.13;;;13.74;53.95
26859;BME280;14429;48.346;16.338;2023-02-19T07:52:22;99684.50;;;13.66;54.09
26859;BME280;14429;48.346;16.338;2023-02-19T07:54:47;99691.03;;;13.83;53.35
26859;BME280;14429;48.346;16.338;2023-02-19T07:57:13;99670.97;;;13.78;53.06
26859;BME280;14429;48.346;16.338;2023-02-19T07:59:38;99690.06;;;13.95;53.03
26859;BME280;14429;48.346;16.338;2023-02-19T08:02:10;99698.84;;;13.97;52.12
26859;BME280;14429;48.346;16.338;2023-02-19T08:04:40;99703.22;;;13.98;52.08
26859;BME280;14429;48.346;16.338;2023-02-19T08:07:06;99681.53;;;13.90;52.23
26859;BME280;14429;48.346;16.338;2023-02-19T08:09:32;99695.66;;;13.81;52.69
26859;BME280;14429;48.346;16.338;2023-02-19T08:11:58;99696.41;;;13.83;53.12
26859;BME280;14429;48.346;16.338;2023-02-19T08:14:24;99696.19;;;13.65;54.10
26859;BME280;14429;48.346;16.338;2023-02-19T08:16:50;99708.38;;;13.69;54.44
26859;BME280;14429;48.346;16.338;2023-02-19T08:19:15;99711.50;;;13.73;54.01
26859;BME280;14429;48.346;16.338;2023-02-19T08:21:42;99724.56;;;13.78;53.40
26859;BME280;14429;48.346;16.338;2023-02-19T08:24:08;99721.75;;;13.79;53.21
26859;BME280;14429;48.346;16.338;2023-02-19T08:26:33;99711.88;;;13.80;53.23
26859;BME280;14429;48.346;16.338;2023-02-19T08:28:59;99717.06;;;13.92;52.30
26859;BME280;14429;48.346;16.338;2023-02-19T08:31:24;99723.81;;;13.87;52.23
26859;BME280;14429;48.346;16.338;2023-02-19T08:33:50;99742.44;;;13.88;54.55
26859;BME280;14429;48.346;16.338;2023-02-19T08:36:15;99717.59;;;13.86;52.99
26859;BME280;14429;48.346;16.338;2023-02-19T08:38:42;99722.22;;;13.73;53.59
26859;BME280;14429;48.346;16.338;2023-02-19T08:41:10;99730.78;;;13.57;54.71
26859;BME280;14429;48.346;16.338;2023-02-19T08:43:36;99720.31;;;13.65;54.41
26859;BME280;14429;48.346;16.338;2023-02-19T08:46:02;99726.13;;;13.70;53.97
26859;BME280;14429;48.346;16.338;2023-02-19T08:48:27;99732.47;;;13.79;53.62
26859;BME280;14429;48.346;16.338;2023-02-19T08:50:54;99743.66;;;13.84;53.06
26859;BME280;14429;48.346;16.338;2023-02-19T08:53:19;99735.13;;;13.90;52.59
26859;BME280;14429;48.346;16.338;2023-02-19T08:55:46;99735.13;;;13.90;52.48
26859;BME280;14429;48.346;16.338;2023-02-19T08:58:12;99749.53;;;13.89;52.46
26859;BME280;14429;48.346;16.338;2023-02-19T09:00:37;99753.44;;;13.64;53.85
26859;BME280;14429;48.346;16.338;2023-02-19T09:03:02;99752.69;;;13.73;54.13
26859;BME280;14429;48.346;16.338;2023-02-19T09:05:28;99767.31;;;13.69;54.70
26859;BME280;14429;48.346;16.338;2023-02-19T09:07:53;99778.25;;;13.76;54.43
26859;BME280;14429;48.346;16.338;2023-02-19T09:10:19;99759.50;;;13.76;54.01
26859;BME280;14429;48.346;16.338;2023-02-19T09:12:45;99756.34;;;13.93;53.13
26859;BME280;14429;48.346;16.338;2023-02-19T09:15:11;99761.34;;;13.98;52.63
26859;BME280;14429;48.346;16.338;2023-02-19T09:17:36;99761.81;;;13.92;52.63
26859;BME280;14429;48.346;16.338;2023-02-19T09:20:02;99765.09;;;14.06;52.30
26859;BME280;14429;48.346;16.338;2023-02-19T09:22:27;99761.72;;;14.04;52.15
26859;BME280;14429;48.346;16.338;2023-02-19T09:24:53;99751.44;;;14.09;54.11
26859;BME280;14429;48.346;16.338;2023-02-19T09:27:19;99749.16;;;13.83;53.71
26859;BME280;14429;48.346;16.338;2023-02-19T09:29:46;99752.44;;;13.75;54.39
26859;BME280;14429;48.346;16.338;2023-02-19T09:32:12;99748.06;;;13.85;54.58
26859;BME280;14429;48.346;16.338;2023-02-19T09:34:37;99744.41;;;13.86;54.03
26859;BME280;14429;48.346;16.338;2023-02-19T09:37:03;99738.78;;;13.89;53.46
26859;BME280;14429;48.346;16.338;2023-02-19T09:39:28;99742.34;;;14.01;53.16
26859;BME280;14429;48.346;16.338;2023-02-19T09:41:57;99749.25;;;14.03;52.88
26859;BME280;14429;48.346;16.338;2023-02-19T09:44:26;99745.06;;;14.21;54.72
26859;BME280;14429;48.346;16.338;2023-02-19T09:46:55;99737.28;;;14.18;52.40
26859;BME280;14429;48.346;16.338;2023-02-19T09:49:24;99737.03;;;14.21;52.64
26859;BME280;14429;48.346;16.338;2023-02-19T09:51:55;99747.28;;;14.16;53.14
26859;BME280;14429;48.346;16.338;2023-02-19T09:54:23;99737.56;;;14.04;53.73
26859;BME280;14429;48.346;16.338;2023-02-19T09:56:49;99737.81;;;14.12;54.47
26859;BME280;14429;48.346;16.338;2023-02-19T09:59:20;99739.75;;;13.99;53.76
26859;BME280;14429;48.346;16.338;2023-02-19T10:01:47;99737.81;;;14.01;53.27
26859;BME280;14429;48.346;16.338;2023-02-19T10:04:15;99736.81;;;14.13;52.55
26859;BME280;14429;48.346;16.338;2023-02-19T10:06:40;99747.28;;;14.16;52.27
26859;BME280;14429;48.346;16.338;2023-02-19T10:09:16;99747.50;;;14.24;54.81
26859;BME280;14429;48.346;16.338;2023-02-19T10:11:44;99739.00;;;14.19;52.13
26859;BME280;14429;48.346;16.338;2023-02-19T10:14:15;99738.34;;;14.26;52.61
26859;BME280;14429;48.346;16.338;2023-02-19T10:16:44;99747.97;;;14.28;53.93
26859;BME280;14429;48.346;16.338;2023-02-19T10:19:10;99748.53;;;14.01;53.69
26859;BME280;14429;48.346;16.338;2023-02-19T10:21:38;99748.41;;;14.02;53.83
26859;BME280;14429;48.346;16.338;2023-02-19T10:24:05;99754.84;;;14.00;53.77
26859;BME280;14429;48.346;16.338;2023-02-19T10:26:31;99746.78;;;14.22;52.92
26859;BME280;14429;48.346;16.338;2023-02-19T10:28:56;99747.03;;;14.19;52.39
26859;BME280;14429;48.346;16.338;2023-02-19T10:31:23;99745.91;;;14.21;52.20
26859;BME280;14429;48.346;16.338;2023-02-19T10:33:50;99738.69;;;14.32;52.09
26859;BME280;14429;48.346;16.338;2023-02-19T10:36:24;99748.72;;;14.30;51.76
26859;BME280;14429;48.346;16.338;2023-02-19T10:38:51;99741.78;;;14.48;51.83
26859;BME280;14429;48.346;16.338;2023-02-19T10:41:19;99753.72;;;14.24;52.45
26859;BME280;14429;48.346;16.338;2023-02-19T10:43:50;99743.63;;;14.17;53.24
26859;BME280;14429;48.346;16.338;2023-02-19T10:46:20;99753.75;;;14.13;53.31
26859;BME280;14429;48.346;16.338;2023-02-19T10:48:50;99757.78;;;14.19;52.82
26859;BME280;14429;48.346;16.338;2023-02-19T10:51:17;99753.84;;;14.23;53.76
26859;BME280;14429;48.346;16.338;2023-02-19T10:53:45;99746.69;;;14.12;52.59
26859;BME280;14429;48.346;16.338;2023-02-19T10:56:15;99754.84;;;14.11;52.47
26859;BME280;14429;48.346;16.338;2023-02-19T10:58:46;99743.59;;;14.28;51.74
26859;BME280;14429;48.346;16.338;2023-02-19T11:01:17;99744.06;;;14.32;51.20
26859;BME280;14429;48.346;16.338;2023-02-19T11:03:42;99743.03;;;14.44;52.00
26859;BME280;14429;48.346;16.338;2023-02-19T11:06:09;99747.78;;;14.41;51.71
26859;BME280;14429;48.346;16.338;2023-02-19T11:08:45;99742.44;;;14.41;52.10
26859;BME280;14429;48.346;16.338;2023-02-19T11:11:23;99738.66;;;14.43;52.74
26859;BME280;14429;48.346;16.338;2023-02-19T11:13:49;99740.22;;;14.46;52.20
26859;BME280;14429;48.346;16.338;2023-02-19T11:16:15;99737.44;;;14.36;51.86
26859;BME280;14429;48.346;16.338;2023-02-19T11:18:41;99732.72;;;14.29;51.76
26859;BME280;14429;48.346;16.338;2023-02-19T11:21:15;99747.72;;;14.31;51.32
26859;BME280;14429;48.346;16.338;2023-02-19T11:23:47;99735.66;;;14.26;51.12
26859;BME280;14429;48.346;16.338;2023-02-19T11:26:16;99743.97;;;14.23;50.44
26859;BME280;14429;48.346;16.338;2023-02-19T11:28:44;99739.22;;;14.27;50.72
26859;BME280;14429;48.346;16.338;2023-02-19T11:31:21;99752.03;;;14.23;51.12
26859;BME280;14429;48.346;16.338;2023-02-19T11:33:54;99744.38;;;14.08;52.29
26859;BME280;14429;48.346;16.338;2023-02-19T11:36:28;99751.22;;;14.12;50.58
26859;BME280;14429;48.346;16.338;2023-02-19T11:38:54;99746.81;;;14.00;52.14
26859;BME280;14429;48.346;16.338;2023-02-19T11:41:40;99742.19;;;14.13;49.67
26859;BME280;14429;48.346;16.338;2023-02-19T11:44:18;99746.94;;;14.09;51.56
26859;BME280;14429;48.346;16.338;2023-02-19T11:46:52;99742.19;;;14.13;51.35
26859;BME280;14429;48.346;16.338;2023-02-19T11:49:32;99741.00;;;14.26;50.83
26859;BME280;14429;48.346;16.338;2023-02-19T11:52:16;99757.72;;;14.29;50.29
26859;BME280;14429;48.346;16.338;2023-02-19T11:54:48;99751.28;;;14.21;50.28
26859;BME280;14429;48.346;16.338;2023-02-19T11:57:21;99752.66;;;14.16;51.15
26859;BME280;14429;48.346;16.338;2023-02-19T11:59:56;99758.03;;;14.05;52.11
26859;BME280;14429;48.346;16.338;2023-02-19T12:02:41;99759.28;;;14.01;52.59
26859;BME280;14429;48.346;16.338;2023-02-19T12:05:18;99762.56;;;14.04;52.34
26859;BME280;14429;48.346;16.338;2023-02-19T12:08:14;99762.41;;;14.06;52.00
26859;BME280;14429;48.346;16.338;2023-02-19T12:10:57;99749.75;;;14.08;51.32
26859;BME280;14429;48.346;16.338;2023-02-19T12:13:34;99764.97;;;14.07;50.80
26859;BME280;14429;48.346;16.338;2023-02-19T12:16:10;99771.53;;;14.14;50.61
26859;BME280;14429;48.346;16.338;2023-02-19T12:19:02;99774.09;;;14.16;50.44
26859;BME280;14429;48.346;16.338;2023-02-19T12:24:53;99778.97;;;14.11;51.41
26859;BME280;14429;48.346;16.338;2023-02-19T12:27:30;99780.47;;;13.93;52.26
26859;BME280;14429;48.346;16.338;2023-02-19T12:30:13;99787.66;;;13.93;52.43
26859;BME280;14429;48.346;16.338;2023-02-19T12:32:57;99788.97;;;13.87;nan
26859;BME280;14429;48.346;16.338;2023-02-19T12:35:42;99779.50;;;13.94;51.98
26859;BME280;14429;48.346;16.338;2023-02-19T12:38:20;99791.44;;;14.01;51.55
26859;BME280;14429;48.346;16.338;2023-02-19T12:40:56;99787.78;;;14.02;51.08
26859;BME280;14429;48.346;16.338;2023-02-19T12:43:25;99795.44;;;14.06;50.78
26859;BME280;14429;48.346;16.338;2023-02-19T12:45:53;99788.75;;;14.12;50.37
26859;BME280;14429;48.346;16.338;2023-02-19T12:48:26;99791.44;;;14.12;50.77
26859;BME280;14429;48.346;16.338;2023-02-19T12:50:56;99791.44;;;14.01;51.79
26859;BME280;14429;48.346;16.338;2023-02-19T12:53:36;99792.41;;;13.89;52.37
26859;BME280;14429;48.346;16.338;2023-02-19T12:56:05;99780.72;;;13.79;53.10
26859;BME280;14429;48.346;16.338;2023-02-19T12:58:38;99786.69;;;13.83;52.55
26859;BME280;14429;48.346;16.338;2023-02-19T13:01:05;99797.88;;;13.88;52.01
26859;BME280;14429;48.346;16.338;2023-02-19T13:03:34;99792.88;;;13.83;52.10
26859;BME280;14429;48.346;16.338;2023-02-19T13:06:06;99787.78;;;14.02;51.02
26859;BME280;14429;48.346;16.338;2023-02-19T13:08:38;99790.94;;;14.07;50.75